createdAt,value
2023-04-17T00:01:38.808Z,5.25
2023-04-17T00:04:11.414Z,6.38
2023-04-17T00:06:39.448Z,6.72
2023-04-17T00:09:07.034Z,6.97
2023-04-17T00:11:34.324Z,4.93
2023-04-17T00:14:01.873Z,7.47
2023-04-17T00:16:29.191Z,6.82
2023-04-17T00:18:56.765Z,9.05
2023-04-17T00:21:24.071Z,9.02
2023-04-17T00:23:51.656Z,11.68
2023-04-17T00:26:19.692Z,6.03
2023-04-17T00:28:48.820Z,7.82
2023-04-17T00:31:16.136Z,6.20
2023-04-17T00:33:43.733Z,8.93
2023-04-17T00:36:13.505Z,7.07
2023-04-17T00:38:41.109Z,8.88
2023-04-17T00:41:08.405Z,7.18
2023-04-17T00:43:36.139Z,6.43
2023-04-17T00:46:04.317Z,7.20
2023-04-17T00:48:32.164Z,4.93
2023-04-17T00:51:02.360Z,9.43
2023-04-17T00:53:31.627Z,8.80
2023-04-17T00:56:04.236Z,6.45
2023-04-17T00:58:31.945Z,5.65
2023-04-17T01:00:59.969Z,7.32
2023-04-17T01:03:29.540Z,5.60
2023-04-17T01:05:57.048Z,6.30
2023-04-17T01:08:24.705Z,6.43
2023-04-17T01:10:52.005Z,7.30
2023-04-17T01:13:19.601Z,5.13
2023-04-17T01:15:47.105Z,6.22
2023-04-17T01:18:14.816Z,5.20
2023-04-17T01:20:42.139Z,6.57
2023-04-17T01:23:09.904Z,8.48
2023-04-17T01:25:37.204Z,7.20
2023-04-17T01:28:05.574Z,10.85
2023-04-17T01:30:32.881Z,7.85
2023-04-17T01:33:00.805Z,4.57
2023-04-17T01:35:28.188Z,7.43
2023-04-17T01:37:56.375Z,6.95
2023-04-17T01:40:23.740Z,9.93
2023-04-17T01:42:51.396Z,8.95
2023-04-17T01:45:18.726Z,9.02
2023-04-17T01:47:47.242Z,10.30
2023-04-17T01:50:14.602Z,9.90
2023-04-17T01:52:42.242Z,9.90
2023-04-17T01:55:09.779Z,8.35
2023-04-17T01:57:37.435Z,9.73
2023-04-17T02:00:09.218Z,14.38
2023-04-17T02:02:37.047Z,12.38
2023-04-17T02:05:04.490Z,13.60
2023-04-17T02:07:32.103Z,9.50
2023-04-17T02:09:59.357Z,11.32
2023-04-17T02:12:26.913Z,10.52
2023-04-17T02:14:54.172Z,9.32
2023-04-17T02:17:21.789Z,11.98
2023-04-17T02:19:49.110Z,10.05
2023-04-17T02:22:18.424Z,12.02
2023-04-17T02:24:45.992Z,11.88
2023-04-17T02:27:13.594Z,12.27
2023-04-17T02:29:41.584Z,12.60
2023-04-17T02:32:09.198Z,11.48
2023-04-17T02:34:36.500Z,10.80
2023-04-17T02:37:04.195Z,11.70
2023-04-17T02:39:31.922Z,8.50
2023-04-17T02:41:59.521Z,14.38
2023-04-17T02:44:26.890Z,11.02
2023-04-17T02:46:54.525Z,11.13
2023-04-17T02:49:21.896Z,12.90
2023-04-17T02:51:49.505Z,13.70
2023-04-17T02:54:16.760Z,11.93
2023-04-17T02:56:44.605Z,11.77
2023-04-17T02:59:12.053Z,14.45
2023-04-17T03:01:40.552Z,11.15
2023-04-17T03:04:07.918Z,12.23
2023-04-17T03:06:35.631Z,10.27
2023-04-17T03:09:05.094Z,14.77
2023-04-17T03:11:32.696Z,14.77
2023-04-17T03:14:00.045Z,11.93
2023-04-17T03:16:27.619Z,15.60
2023-04-17T03:18:55.011Z,13.70
2023-04-17T03:21:22.567Z,11.93
2023-04-17T03:23:49.852Z,12.65
2023-04-17T03:26:17.431Z,12.10
2023-04-17T03:28:44.854Z,12.45
2023-04-17T03:31:12.467Z,14.40
2023-04-17T03:33:39.815Z,12.77
2023-04-17T03:36:07.580Z,12.48
2023-04-17T03:38:36.342Z,11.85
2023-04-17T03:41:03.989Z,11.88
2023-04-17T03:43:31.261Z,12.80
2023-04-17T03:45:58.929Z,12.40
2023-04-17T03:48:26.238Z,11.55
2023-04-17T03:50:54.120Z,13.77
2023-04-17T03:53:21.429Z,10.70
2023-04-17T03:55:49.083Z,11.82
2023-04-17T03:58:16.396Z,11.20
2023-04-17T04:00:45.630Z,13.55
2023-04-17T04:03:13.048Z,11.85
2023-04-17T04:05:40.822Z,10.15
2023-04-17T04:08:08.191Z,10.60
2023-04-17T04:10:35.920Z,9.25
2023-04-17T04:13:03.248Z,11.43
2023-04-17T04:15:30.879Z,13.00
2023-04-17T04:17:58.225Z,8.63
2023-04-17T04:20:25.919Z,8.57
2023-04-17T04:22:53.732Z,9.40
2023-04-17T04:25:21.541Z,6.80
2023-04-17T04:27:49.822Z,9.73
2023-04-17T04:30:17.650Z,13.18
2023-04-17T04:32:47.813Z,9.30
2023-04-17T04:35:15.835Z,9.00
2023-04-17T04:37:46.335Z,6.65
2023-04-17T04:40:14.873Z,7.13
2023-04-17T04:42:42.475Z,9.45
2023-04-17T04:45:10.601Z,8.23
2023-04-17T04:47:37.932Z,8.85
2023-04-17T04:50:05.709Z,7.03
2023-04-17T04:52:33.041Z,7.45
2023-04-17T04:55:01.514Z,10.00
2023-04-17T04:57:28.871Z,6.80
2023-04-17T04:59:56.565Z,7.03
2023-04-17T05:02:24.025Z,8.80
2023-04-17T05:04:52.214Z,5.80
2023-04-17T05:07:19.606Z,7.75
2023-04-17T05:09:47.243Z,6.82
2023-04-17T05:12:14.573Z,8.15
2023-04-17T05:14:42.223Z,8.93
2023-04-17T05:17:09.514Z,7.22
2023-04-17T05:19:37.088Z,7.45
2023-04-17T05:22:04.393Z,8.57
2023-04-17T05:24:32.020Z,5.40
2023-04-17T05:26:59.724Z,7.28
2023-04-17T05:29:27.406Z,8.50
2023-04-17T05:31:54.833Z,11.90
2023-04-17T05:34:22.482Z,7.32
2023-04-17T05:36:49.761Z,11.30
2023-04-17T05:39:18.036Z,7.57
2023-04-17T05:41:45.459Z,10.93
2023-04-17T05:44:13.028Z,10.45
2023-04-17T05:46:40.328Z,10.07
2023-04-17T05:49:07.854Z,10.23
2023-04-17T05:51:35.291Z,12.23
2023-04-17T05:54:03.415Z,9.57
2023-04-17T05:56:31.440Z,10.80
2023-04-17T05:58:59.110Z,10.20
2023-04-17T06:01:26.530Z,12.55
2023-04-17T06:03:54.289Z,12.30
2023-04-17T06:06:21.639Z,12.18
2023-04-17T06:08:49.215Z,13.35
2023-04-17T06:11:17.204Z,13.93
2023-04-17T06:13:45.093Z,13.18
2023-04-17T06:16:12.442Z,14.10
2023-04-17T06:18:41.453Z,12.57
2023-04-17T06:21:09.231Z,12.13
2023-04-17T06:23:36.874Z,11.63
2023-04-17T06:26:04.236Z,13.48
2023-04-17T06:28:32.262Z,11.63
2023-04-17T06:30:59.704Z,10.25
2023-04-17T06:33:27.296Z,11.02
2023-04-17T06:35:54.591Z,11.20
2023-04-17T06:38:22.368Z,10.65
2023-04-17T06:40:51.437Z,10.80
2023-04-17T06:43:20.316Z,9.77
2023-04-17T06:45:48.404Z,11.07
2023-04-17T06:48:16.087Z,10.43
2023-04-17T06:50:43.482Z,9.15
2023-04-17T06:53:11.089Z,11.27
2023-04-17T06:55:38.404Z,10.05
2023-04-17T06:58:08.034Z,8.88
2023-04-17T07:00:35.493Z,10.07
2023-04-17T07:03:03.487Z,9.98
2023-04-17T07:05:30.989Z,9.93
2023-04-17T07:07:58.605Z,8.13
2023-04-17T07:10:25.973Z,7.35
2023-04-17T07:12:53.582Z,6.63
2023-04-17T07:15:21.127Z,8.60
2023-04-17T07:17:48.746Z,7.47
2023-04-17T07:20:16.085Z,6.97
2023-04-17T07:22:43.638Z,8.45
2023-04-17T07:25:11.350Z,7.03
2023-04-17T07:27:39.417Z,7.47
2023-04-17T07:30:08.295Z,7.63
2023-04-17T07:32:36.721Z,8.63
2023-04-17T07:35:04.532Z,8.63
2023-04-17T07:37:32.771Z,10.98
2023-04-17T07:40:00.072Z,8.15
2023-04-17T07:42:29.209Z,9.57
2023-04-17T07:44:56.829Z,9.63
2023-04-17T07:47:24.581Z,6.97
2023-04-17T07:49:52.048Z,8.60
2023-04-17T07:52:19.955Z,8.77
2023-04-17T07:54:47.254Z,7.70
2023-04-17T07:57:15.572Z,6.57
2023-04-17T07:59:43.041Z,6.75
2023-04-17T08:02:10.952Z,6.60
2023-04-17T08:04:40.487Z,11.13
2023-04-17T08:07:10.661Z,7.55
2023-04-17T08:09:38.064Z,10.00
2023-04-17T08:12:06.442Z,8.38
2023-04-17T08:14:34.125Z,6.57
2023-04-17T08:17:02.551Z,8.23
2023-04-17T08:19:30.100Z,7.25
2023-04-17T08:22:02.402Z,4.72
2023-04-17T08:24:30.377Z,7.53
2023-04-17T08:26:58.369Z,6.72
2023-04-17T08:29:25.883Z,11.35
2023-04-17T08:32:06.511Z,39.78
2023-04-17T08:34:38.771Z,13.82
2023-04-17T08:37:06.490Z,10.57
2023-04-17T08:39:33.798Z,8.73
2023-04-17T08:42:05.425Z,9.02
2023-04-17T08:44:32.745Z,7.80
2023-04-17T08:47:00.796Z,7.35
2023-04-17T08:49:31.852Z,8.68
2023-04-17T08:52:02.397Z,8.70
2023-04-17T08:54:29.772Z,8.55
2023-04-17T08:56:57.738Z,5.72
2023-04-17T08:59:25.101Z,7.50
2023-04-17T09:02:06.651Z,7.50
2023-04-17T09:04:41.967Z,6.88
2023-04-17T09:07:11.129Z,5.63
2023-04-17T09:09:50.856Z,11.30
2023-04-17T09:12:20.605Z,6.82
2023-04-17T09:14:48.003Z,6.22
2023-04-17T09:17:19.273Z,7.40
2023-04-17T09:20:07.324Z,7.60
2023-04-17T09:22:35.823Z,8.05
2023-04-17T09:25:03.556Z,8.20
2023-04-17T09:27:31.759Z,7.90
2023-04-17T09:30:04.063Z,7.47
2023-04-17T09:32:32.227Z,6.28
2023-04-17T09:35:00.650Z,5.78
2023-04-17T09:37:51.169Z,9.55
2023-04-17T09:40:19.305Z,8.05
2023-04-17T09:42:56.106Z,6.78
2023-04-17T09:45:24.346Z,6.95
2023-04-17T09:47:55.919Z,4.68
2023-04-17T09:50:27.059Z,5.53
2023-04-17T09:52:56.091Z,6.47
2023-04-17T09:55:32.556Z,6.43
2023-04-17T09:58:02.588Z,6.53
2023-04-17T10:00:30.204Z,7.60
2023-04-17T10:02:59.045Z,8.93
2023-04-17T10:05:28.717Z,9.00
2023-04-17T10:07:56.845Z,8.38
2023-04-17T10:10:34.199Z,8.88
2023-04-17T10:13:03.257Z,10.05
2023-04-17T10:15:31.123Z,9.57
2023-04-17T10:18:18.950Z,12.40
2023-04-17T10:20:48.330Z,15.70
2023-04-17T10:23:29.262Z,13.15
2023-04-17T10:26:27.986Z,11.38
2023-04-17T10:28:57.802Z,8.85
2023-04-17T10:31:45.291Z,10.80
2023-04-17T10:34:32.848Z,9.25
2023-04-17T10:37:01.445Z,8.35
2023-04-17T10:39:48.888Z,12.27
2023-04-17T10:42:20.233Z,8.38
2023-04-17T10:44:47.942Z,10.77
2023-04-17T10:47:15.378Z,7.82
2023-04-17T10:49:53.152Z,8.38
2023-04-17T10:52:44.702Z,7.85
2023-04-17T10:55:17.573Z,11.65
2023-04-17T10:57:57.552Z,8.48
2023-04-17T11:00:30.351Z,11.20
2023-04-17T11:02:57.870Z,9.73
2023-04-17T11:05:25.791Z,9.60
2023-04-17T11:07:53.240Z,10.80
2023-04-17T11:10:21.337Z,7.07
2023-04-17T11:12:49.088Z,7.18
2023-04-17T11:15:17.076Z,8.85
2023-04-17T11:17:48.270Z,9.82
2023-04-17T11:20:20.921Z,7.85
2023-04-17T11:22:48.432Z,5.10
2023-04-17T11:25:23.474Z,8.18
2023-04-17T11:27:56.022Z,7.82
2023-04-17T11:30:33.619Z,8.27
2023-04-17T11:33:02.349Z,7.88
2023-04-17T11:35:34.331Z,9.88
2023-04-17T11:38:14.324Z,14.73
2023-04-17T11:40:52.074Z,7.00
2023-04-17T11:43:20.638Z,11.38
2023-04-17T11:45:49.357Z,11.23
2023-04-17T11:48:19.846Z,12.30
2023-04-17T11:50:47.431Z,10.52
2023-04-17T11:53:16.224Z,9.55
2023-04-17T11:55:44.419Z,9.23
2023-04-17T11:58:12.688Z,12.95
2023-04-17T12:00:41.146Z,10.63
2023-04-17T12:03:31.346Z,21.08
2023-04-17T12:06:00.125Z,13.15
2023-04-17T12:08:27.498Z,20.02
2023-04-17T12:10:55.079Z,23.58
2023-04-17T12:13:22.341Z,13.32
2023-04-17T12:15:50.590Z,20.83
2023-04-17T12:18:18.047Z,13.98
2023-04-17T12:20:46.232Z,20.20
2023-04-17T12:23:13.488Z,16.80
2023-04-17T12:25:42.259Z,8.93
2023-04-17T12:28:09.542Z,9.98
2023-04-17T12:30:39.757Z,8.48
2023-04-17T12:33:07.209Z,17.58
2023-04-17T12:35:34.832Z,10.52
2023-04-17T12:38:02.400Z,9.82
2023-04-17T12:40:30.076Z,12.43
2023-04-17T12:42:57.419Z,7.18
2023-04-17T12:45:25.004Z,8.98
2023-04-17T12:47:52.424Z,5.10
2023-04-17T12:50:20.389Z,10.48
2023-04-17T12:52:47.808Z,8.25
2023-04-17T12:55:15.676Z,12.90
2023-04-17T12:57:44.006Z,9.60
2023-04-17T13:00:11.745Z,8.90
2023-04-17T13:02:39.229Z,36.72
2023-04-17T13:05:07.442Z,10.23
2023-04-17T13:07:35.139Z,11.15
2023-04-17T13:10:02.739Z,12.40
2023-04-17T13:12:30.065Z,16.08
2023-04-17T13:14:57.937Z,16.13
2023-04-17T13:17:25.559Z,24.58
2023-04-17T13:19:53.172Z,12.07
2023-04-17T13:22:20.640Z,19.98
2023-04-17T13:24:48.348Z,10.40
2023-04-17T13:27:15.735Z,11.90
2023-04-17T13:29:43.343Z,6.97
2023-04-17T13:32:10.608Z,5.82
2023-04-17T13:34:38.199Z,8.55
2023-04-17T13:37:05.712Z,12.68
2023-04-17T13:39:33.419Z,17.23
2023-04-17T13:42:00.728Z,12.40
2023-04-17T13:44:28.414Z,9.82
2023-04-17T13:46:55.846Z,9.52
2023-04-17T13:49:23.591Z,8.57
2023-04-17T13:51:50.926Z,5.82
2023-04-17T13:54:18.882Z,10.88
2023-04-17T13:56:46.236Z,11.25
2023-04-17T13:59:13.995Z,10.60
2023-04-17T14:01:41.751Z,20.80
2023-04-17T14:04:09.619Z,11.25
2023-04-17T14:06:37.427Z,17.65
2023-04-17T14:09:05.819Z,19.85
2023-04-17T14:11:33.125Z,14.50
2023-04-17T14:14:00.727Z,20.38
2023-04-17T14:16:28.186Z,14.32
2023-04-17T14:18:57.933Z,14.13
2023-04-17T14:21:28.556Z,18.98
2023-04-17T14:23:56.940Z,11.20
2023-04-17T14:26:24.264Z,11.73
2023-04-17T14:28:51.896Z,9.23
2023-04-17T14:31:19.237Z,12.73
2023-04-17T14:33:46.858Z,12.73
2023-04-17T14:36:14.229Z,13.60
2023-04-17T14:38:41.909Z,16.13
2023-04-17T14:41:09.314Z,19.27
2023-04-17T14:43:36.968Z,15.23
2023-04-17T14:46:04.414Z,11.43
2023-04-17T14:48:34.343Z,13.60
2023-04-17T14:51:06.040Z,20.60
2023-04-17T14:53:33.612Z,17.92
2023-04-17T14:56:00.931Z,19.38
2023-04-17T14:58:28.518Z,26.20
2023-04-17T15:00:55.875Z,20.25
2023-04-17T15:03:23.679Z,17.50
2023-04-17T15:05:52.300Z,23.05
2023-04-17T15:08:20.211Z,23.92
2023-04-17T15:10:51.578Z,21.13
2023-04-17T15:13:19.509Z,16.40
2023-04-17T15:15:46.918Z,28.58
2023-04-17T15:18:14.575Z,10.15
2023-04-17T15:20:41.918Z,30.05
2023-04-17T15:23:09.559Z,31.17
2023-04-17T15:25:36.939Z,34.58
2023-04-17T15:28:04.748Z,9.63
2023-04-17T15:30:32.110Z,14.75
2023-04-17T15:32:59.775Z,23.73
2023-04-17T15:35:27.133Z,20.92
2023-04-17T15:37:54.767Z,14.70
2023-04-17T15:40:22.028Z,19.73
2023-04-17T15:42:49.806Z,21.13
2023-04-17T15:45:17.221Z,17.70
2023-04-17T15:47:44.878Z,28.83
2023-04-17T15:50:12.424Z,25.38
2023-04-17T15:52:40.031Z,21.73
2023-04-17T15:55:07.468Z,18.80
2023-04-17T15:57:35.085Z,34.63
2023-04-17T16:00:02.518Z,25.98
2023-04-17T16:02:30.225Z,20.70
2023-04-17T16:04:57.660Z,23.30
2023-04-17T16:07:25.246Z,22.30
2023-04-17T16:09:52.531Z,22.38
2023-04-17T16:12:20.116Z,19.42
2023-04-17T16:14:47.825Z,18.48
2023-04-17T16:17:15.510Z,20.20
2023-04-17T16:19:42.823Z,19.65
2023-04-17T16:22:10.466Z,26.48
2023-04-17T16:24:37.765Z,25.65
2023-04-17T16:27:07.083Z,31.17
2023-04-17T16:29:34.377Z,21.08
2023-04-17T16:32:02.043Z,40.80
2023-04-17T16:34:29.395Z,32.85
2023-04-17T16:36:57.035Z,29.40
2023-04-17T16:39:24.646Z,53.53
2023-04-17T16:41:52.777Z,53.25
2023-04-17T16:44:20.395Z,33.60
2023-04-17T16:49:18.239Z,22.88
2023-04-17T16:51:45.827Z,30.75
2023-04-17T16:54:13.414Z,28.98
2023-04-17T16:56:41.959Z,27.20
2023-04-17T16:59:09.309Z,34.55
2023-04-17T17:01:37.255Z,25.15
2023-04-17T17:04:04.771Z,39.50
2023-04-17T17:06:32.417Z,38.78
2023-04-17T17:08:59.794Z,34.70
2023-04-17T17:11:27.644Z,34.72
2023-04-17T17:13:55.062Z,26.40
2023-04-17T17:16:22.931Z,26.25
2023-04-17T17:18:50.543Z,30.15
2023-04-17T17:21:18.305Z,40.97
2023-04-17T17:23:45.718Z,33.03
2023-04-17T17:26:13.505Z,22.88
2023-04-17T17:28:40.910Z,32.55
2023-04-17T17:31:09.073Z,24.23
2023-04-17T17:33:36.975Z,19.70
2023-04-17T17:36:04.955Z,29.83
2023-04-17T17:38:32.697Z,28.20
2023-04-17T17:41:00.574Z,19.45
2023-04-17T17:43:30.906Z,41.35
2023-04-17T17:46:13.522Z,34.45
2023-04-17T17:48:41.646Z,54.07
2023-04-17T17:51:09.315Z,28.80
2023-04-17T17:53:36.681Z,20.15
2023-04-17T17:56:04.496Z,20.02
2023-04-17T17:58:31.804Z,14.25
2023-04-17T18:00:59.430Z,19.38
2023-04-17T18:03:27.037Z,29.05
2023-04-17T18:05:55.180Z,21.92
2023-04-17T18:08:22.579Z,23.33
2023-04-17T18:10:50.171Z,26.98
2023-04-17T18:13:17.657Z,15.25
2023-04-17T18:15:45.388Z,12.65
2023-04-17T18:18:12.720Z,26.30
2023-04-17T18:20:40.836Z,8.80
2023-04-17T18:26:01.113Z,15.43
2023-04-17T18:28:28.848Z,14.48
2023-04-17T18:30:56.513Z,17.52
2023-04-17T18:33:23.884Z,17.70
2023-04-17T18:35:51.925Z,11.95
2023-04-17T18:38:19.429Z,22.38
2023-04-17T18:40:47.044Z,15.57
2023-04-17T18:43:14.578Z,13.93
2023-04-17T18:45:42.432Z,12.75
2023-04-17T18:48:09.873Z,15.93
2023-04-17T18:50:38.709Z,16.48
2023-04-17T18:53:06.114Z,15.20
2023-04-17T18:55:37.091Z,13.10
2023-04-17T18:58:05.168Z,15.60
2023-04-17T19:00:32.868Z,17.65
2023-04-17T19:03:00.406Z,17.33
2023-04-17T19:05:28.365Z,18.17
2023-04-17T19:07:55.892Z,17.35
2023-04-17T19:10:24.613Z,16.38
2023-04-17T19:12:51.975Z,16.52
2023-04-17T19:15:20.902Z,19.88
2023-04-17T19:17:48.346Z,17.73
2023-04-17T19:20:16.733Z,26.45
2023-04-17T19:22:44.340Z,19.52
2023-04-17T19:25:12.052Z,10.73
2023-04-17T19:27:39.398Z,12.45
2023-04-17T19:30:08.308Z,20.65
2023-04-17T19:32:35.959Z,15.70
2023-04-17T19:35:03.606Z,28.92
2023-04-17T19:37:31.298Z,18.50
2023-04-17T19:39:58.833Z,14.48
2023-04-17T19:42:27.102Z,20.58
2023-04-17T19:44:54.685Z,20.60
2023-04-17T19:47:23.976Z,22.80
2023-04-17T19:49:51.890Z,15.55
2023-04-17T19:52:19.287Z,12.63
2023-04-17T19:54:47.175Z,16.10
2023-04-17T19:57:14.734Z,23.10
2023-04-17T19:59:42.416Z,10.20
2023-04-17T20:02:10.938Z,22.33
2023-04-17T20:04:38.772Z,16.83
2023-04-17T20:07:06.063Z,17.40
2023-04-17T20:09:33.707Z,23.73
2023-04-17T20:12:00.978Z,23.40
2023-04-17T20:14:28.656Z,17.63
2023-04-17T20:16:56.272Z,19.30
2023-04-17T20:19:24.369Z,14.65
2023-04-17T20:21:51.681Z,22.20
2023-04-17T20:24:19.317Z,20.38
2023-04-17T20:26:46.684Z,14.38
2023-04-17T20:29:14.581Z,18.77
2023-04-17T20:31:42.263Z,20.30
2023-04-17T20:34:09.898Z,22.38
2023-04-17T20:36:37.163Z,22.77
2023-04-17T20:39:04.915Z,21.52
2023-04-17T20:41:32.202Z,19.00
2023-04-17T20:44:00.289Z,15.07
2023-04-17T20:46:28.238Z,22.60
2023-04-17T20:48:56.091Z,19.75
2023-04-17T20:51:27.433Z,22.65
2023-04-17T20:53:55.188Z,24.17
2023-04-17T20:56:23.072Z,20.35
2023-04-17T20:58:50.903Z,16.02
2023-04-17T21:01:18.263Z,19.80
2023-04-17T21:03:46.215Z,19.95
2023-04-17T21:06:13.577Z,18.33
2023-04-17T21:08:41.529Z,20.52
2023-04-17T21:11:08.869Z,17.30
2023-04-17T21:13:36.441Z,22.08
2023-04-17T21:16:03.781Z,19.90
2023-04-17T21:18:31.479Z,28.70
2023-04-17T21:20:58.767Z,17.23
2023-04-17T21:23:26.436Z,21.55
2023-04-17T21:25:54.855Z,22.38
2023-04-17T21:28:22.491Z,20.08
2023-04-17T21:30:49.838Z,26.45
2023-04-17T21:33:17.710Z,17.92
2023-04-17T21:35:45.651Z,17.20
2023-04-17T21:38:13.540Z,18.33
2023-04-17T21:40:50.505Z,21.02
2023-04-17T21:43:19.241Z,19.77
2023-04-17T21:45:46.881Z,19.50
2023-04-17T21:48:15.287Z,18.65
2023-04-17T21:50:43.227Z,21.92
2023-04-17T21:53:10.830Z,16.60
2023-04-17T21:55:38.665Z,19.27
2023-04-17T21:58:06.262Z,16.70
2023-04-17T22:00:33.645Z,16.08
2023-04-17T22:03:01.333Z,13.88
2023-04-17T22:05:28.717Z,22.08
2023-04-17T22:07:56.619Z,17.90
2023-04-17T22:10:24.549Z,13.57
2023-04-17T22:12:52.220Z,19.30
2023-04-17T22:15:19.635Z,15.10
2023-04-17T22:17:47.333Z,17.00
2023-04-17T22:20:14.658Z,15.98
2023-04-17T22:22:42.583Z,17.13
2023-04-17T22:25:09.966Z,19.35
2023-04-17T22:27:37.657Z,21.58
2023-04-17T22:30:06.395Z,14.50
2023-04-17T22:32:34.487Z,15.15
2023-04-17T22:35:01.861Z,20.55
2023-04-17T22:37:29.429Z,17.20
2023-04-17T22:39:56.730Z,18.13
2023-04-17T22:42:24.317Z,17.63
2023-04-17T22:44:51.979Z,16.25
2023-04-17T22:47:21.606Z,14.07
2023-04-17T22:49:49.006Z,17.98
2023-04-17T22:52:16.646Z,15.52
2023-04-17T22:54:43.955Z,16.63
2023-04-17T22:57:11.713Z,21.00
2023-04-17T22:59:39.029Z,19.23
2023-04-17T23:02:06.711Z,20.75
2023-04-17T23:07:19.466Z,15.85
2023-04-17T23:09:46.896Z,22.95
2023-04-17T23:12:14.622Z,13.52
2023-04-17T23:14:43.533Z,18.17
2023-04-17T23:17:11.274Z,19.17
2023-04-17T23:19:38.708Z,23.73
2023-04-17T23:22:07.448Z,17.65
2023-04-17T23:24:35.019Z,22.42
2023-04-17T23:27:02.736Z,19.73
2023-04-17T23:29:30.252Z,14.55
2023-04-17T23:31:57.941Z,16.65
2023-04-17T23:34:27.801Z,18.35
2023-04-17T23:36:55.470Z,16.05
2023-04-17T23:39:22.753Z,19.75
2023-04-17T23:41:50.431Z,16.42
2023-04-17T23:44:17.739Z,23.20
2023-04-17T23:46:45.436Z,23.15
2023-04-17T23:49:12.874Z,22.75
2023-04-17T23:51:40.440Z,23.10
2023-04-17T23:54:07.971Z,19.63
2023-04-17T23:56:35.720Z,17.35
2023-04-17T23:59:03.052Z,18.25
